Flugplatz - Wetter - Augsburg

[Quelle: ADDS]
METAR
EDMA 281320Z 35004KT 290V070 CAVOK 19/03 Q1023 =
TAF
EDMA 281100Z 2812/2821 28005KT CAVOK =
SR / SS: 05:04 / 17:44 UTC (Günzburg 2017-03-28)

Flugplatz - Wetter - Laupheim

[Quelle: ADDS]
METAR
ETHL 281320Z 19005KT 9999 SCT050 18/04 Q1023 BLU+BLU+ =
TAF
ETHL 281327Z 2814/2823 22005KT 9999 NSW SCT060 =

Notice: Undefined index: sun in /homepages/1/d158740339/htdocs/joomla/modules/mod_wx/tmpl/default.php on line 13

Flugplatz - Wetter - Memmingen

[Quelle: ADDS]
METAR
EDJA 281320Z 01004KT 310V090 CAVOK 17/02 Q1023 =
TAF
EDJA 281100Z 2812/2821 27006KT CAVOK BECMG 2816/2818 21005KT =

Notice: Undefined index: sun in /homepages/1/d158740339/htdocs/joomla/modules/mod_wx/tmpl/default.php on line 13

Flugplatz - Wetter - Neuburg/Donau

[Quelle: ADDS]
METAR
ETSN 281320Z 27002KT 9999 19/M01 Q1022 BLU+BLU+ =
TAF
ETSN 281325Z 2814/2823 23005KT 9999 NSW SKC BY ETGL =

Notice: Undefined index: sun in /homepages/1/d158740339/htdocs/joomla/modules/mod_wx/tmpl/default.php on line 13

Flugplatz - Wetter - Stuttgart

[Quelle: ADDS]
METAR
EDDS 281320Z 01008KT 340V060 CAVOK 19/06 Q1022 NOSIG =
TAF
EDDS 281100Z 2812/2912 17005KT CAVOK BECMG 2812/2815 26006KT BECMG 2819/2821 VRB03KT BECMG 2908/2910 26006KT =

Notice: Undefined index: sun in /homepages/1/d158740339/htdocs/joomla/modules/mod_wx/tmpl/default.php on line 13

Flugplatz - Wetter - Niederstetten

[Quelle: ADDS]
METAR
ETHN 281320Z 25010G21KT 9999 FEW055 17/03 Q1023 BLU+BLU+ =
TAF
ETHN 281310Z 2814/2823 26012KT 9999 NSW SKC =

Notice: Undefined index: sun in /homepages/1/d158740339/htdocs/joomla/modules/mod_wx/tmpl/default.php on line 13